• Join FlightAware (Why Join?)
  • Login
  • US Flag 
07:31AM EDT


 

Airport Tracker/Info


-or-


 

Live Flight TrackerFlight Track Log ✈ SWA2236 ✈ 17-Jul-2013 ✈ KLAS - KJAX

Flight Track Log - Related Links

Times and Time Zones

All times are in EDT time to prevent confusion due to time zone crossing. See the SWA2236 flight status page for this flight to view local times or setup timezone preferences in your user account.

Time Position Orientation Groundspeed Altitude Reporting Facility
EDT Latitude Longitude Course Direction KTS MPH feet Rate Location/Type
02:32PM 36.0761 -115.1789 257° West 198 228 3,200  Level Los Angeles Center
02:33PM 36.0611 -115.2583 257° West 221 254 5,700 1,920 Climbing Los Angeles Center
02:34PM 36.0256 -115.2742 200° South 230 265 6,700 2,340 Climbing Los Angeles Center
02:35PM 35.9569 -115.2981 196° South 250 288 9,500 2,280 Climbing Los Angeles Center
02:36PM 35.9158 -115.2175 122° Southeast 290 334 11,500 1,800 Climbing Los Angeles Center
02:37PM 35.9206 -115.0997 87° East 340 391 13,300 1,980 Climbing Los Angeles Center
02:38PM 35.9208 -114.9694 90° East 368 423 15,700 2,340 Climbing Los Angeles Center
02:39PM 35.9219 -114.8094 89° East 386 444 18,200 2,280 Climbing Los Angeles Center
02:40PM 35.9228 -114.6689 90° East 401 461 20,500 1,980 Climbing Los Angeles Center
02:41PM 35.9228 -114.5253 90° East 414 476 22,300 1,500 Climbing Los Angeles Center
02:42PM 35.9236 -114.3786 90° East 424 488 24,000 1,560 Climbing Los Angeles Center
02:43PM 35.9239 -114.1972 90° East 436 502 25,900 1,500 Climbing Los Angeles Center
02:44PM 35.9236 -114.0411 90° East 449 517 27,200 1,440 Climbing Los Angeles Center
02:45PM 35.9214 -113.8489 91° East 460 529 28,900 1,500 Climbing Los Angeles Center
02:46PM 35.8989 -113.6908 100° East 465 535 30,300 1,200 Climbing Los Angeles Center
02:47PM 35.8656 -113.5367 105° East 467 537 31,500 1,200 Climbing Los Angeles Center
02:48PM 35.8400 -113.3781 101° East 471 542 32,900 720 Climbing Los Angeles Center
02:49PM 35.8156 -113.2208 101° East 470 541 33,000  Climbing Los Angeles Center
02:50PM 35.7936 -113.0653 100° East 466 536 33,000 540 Level Los Angeles Center
02:52PM 35.7992 -112.8753 88° East 463 533 34,200 1,200 Climbing Los Angeles Center
02:53PM 35.8011 -112.7208 89° East 455 524 35,600 960 Climbing Los Angeles Center
02:54PM 35.8031 -112.5683 89° East 448 516 36,500 600 Climbing Los Angeles Center
02:55PM 35.8050 -112.3847 89° East 447 514 37,000 240 Climbing Los Angeles Center
02:56PM 35.8058 -112.2325 90° East 446 513 37,000  Level Los Angeles Center
02:57PM 35.8072 -112.0808 89° East 447 514 37,000  Level Los Angeles Center
02:58PM 35.8086 -111.8997 89° East 442 509 37,000  Level Los Angeles Center
02:59PM 35.8092 -111.7492 90° East 442 509 37,000  Level Los Angeles Center
03:00PM 35.8081 -111.5969 90° East 444 511 37,000  Level Albuquerque Center
03:01PM 35.8092 -111.4389 89° East 444 511 37,000  Level Albuquerque Center
03:02PM 35.8094 -111.2714 90° East 440 506 37,000  Level Albuquerque Center
03:03PM 35.8089 -111.1281 90° East 439 505 37,000  Level Albuquerque Center
03:04PM 35.8097 -110.9839 90° East 439 505 37,000  Level Albuquerque Center
03:05PM 35.8083 -110.8156 91° East 440 506 37,000  Level Albuquerque Center
03:06PM 35.8078 -110.6714 90° East 440 506 37,000  Level Albuquerque Center
03:07PM 35.8069 -110.5050 90° East 436 502 37,000  Level Albuquerque Center
03:08PM 35.8047 -110.3622 91° East 437 503 37,000  Level Albuquerque Center
03:09PM 35.8056 -110.2225 90° East 430 495 37,000  Level Albuquerque Center
03:10PM 35.8039 -110.0592 91° East 428 493 37,000  Level Albuquerque Center
03:11PM 35.7992 -109.9200 92° East 426 490 37,000  Level Albuquerque Center
03:12PM 35.7817 -109.7572 98° East 428 493 37,000  Level Albuquerque Center
03:13PM 35.7694 -109.6181 96° East 429 494 37,000  Level Albuquerque Center
03:14PM 35.7447 -109.4581 101° East 428 493 37,000  Level Albuquerque Center
03:15PM 35.7342 -109.3175 95° East 433 498 37,000  Level Albuquerque Center
03:16PM 35.7172 -109.1550 97° East 431 496 37,000  Level Albuquerque Center
03:17PM 35.7036 -109.0144 97° East 433 498 37,000  Level Albuquerque Center
03:18PM 35.6872 -108.8519 97° East 433 498 37,000  Level Albuquerque Center
03:20PM 35.6736 -108.7119 97° East 433 498 37,000  Level Albuquerque Center
03:21PM 35.6597 -108.5736 97° East 431 496 37,000  Level Albuquerque Center
03:22PM 35.6439 -108.4133 97° East 426 490 37,000  Level Albuquerque Center
03:23PM 35.6286 -108.2764 98° East 425 489 37,000  Level Albuquerque Center
03:24PM 35.6131 -108.1169 97° East 423 487 37,000  Level Albuquerque Center
03:25PM 35.5989 -107.9822 97° East 419 482 37,000  Level Albuquerque Center
03:26PM 35.5808 -107.8253 98° East 417 480 37,000  Level Albuquerque Center
03:27PM 35.5661 -107.6917 98° East 414 476 37,000  Level Albuquerque Center
03:28PM 35.5475 -107.5364 98° East 413 475 37,000  Level Albuquerque Center
03:29PM 35.5328 -107.4017 98° East 414 476 37,000  Level Albuquerque Center
03:30PM 35.5178 -107.2658 98° East 419 482 37,000  Level Albuquerque Center
03:31PM 35.4989 -107.1019 98° East 420 483 37,000  Level Albuquerque Center
03:32PM 35.4833 -106.9608 98° East 416 479 37,000  Level Albuquerque Center
03:33PM 35.4672 -106.8183 98° East 417 480 37,000  Level Albuquerque Center
03:34PM 35.4500 -106.6781 99° East 415 478 37,000  Level Albuquerque Center
03:35PM 35.4331 -106.5378 98° East 413 475 37,000  Level Albuquerque Center
03:36PM 35.4161 -106.3978 98° East 413 475 37,000  Level Albuquerque Center
03:37PM 35.3986 -106.2594 99° East 411 473 37,000  Level Albuquerque Center
03:38PM 35.3808 -106.1206 99° East 412 474 37,000  Level Albuquerque Center
03:39PM 35.3608 -105.9719 99° East 411 473 37,000  Level Albuquerque Center
03:40PM 35.3444 -105.8308 98° East 415 478 37,000  Level Albuquerque Center
03:41PM 35.3275 -105.6903 98° East 415 478 37,000  Level Albuquerque Center
03:42PM 35.3069 -105.5264 99° East 414 476 37,000  Level Albuquerque Center
03:43PM 35.2878 -105.3867 100° East 414 476 37,000  Level Albuquerque Center
03:44PM 35.2686 -105.2469 99° East 415 478 37,000  Level Albuquerque Center
03:45PM 35.2503 -105.1072 99° East 414 476 37,000  Level Albuquerque Center
03:46PM 35.2317 -104.9678 99° East 414 476 37,000  Level Albuquerque Center
03:47PM 35.2117 -104.8294 100° East 411 473 37,000  Level Albuquerque Center
03:48PM 35.1933 -104.6908 99° East 411 473 37,000  Level Albuquerque Center
03:49PM 35.1764 -104.5567 99° East 414 476 37,000  Level Albuquerque Center
03:50PM 35.1533 -104.3892 100° East 417 480 37,000  Level Albuquerque Center
03:51PM 35.1339 -104.2489 100° East 420 483 37,000  Level Albuquerque Center
03:52PM 35.1142 -104.1089 100° East 419 482 37,000  Level Albuquerque Center
03:53PM 35.0936 -103.9686 100° East 420 483 37,000  Level Albuquerque Center
03:54PM 35.0719 -103.8236 100° East 430 495 37,000  Level Albuquerque Center
03:56PM 35.0522 -103.6808 100° East 427 491 37,000  Level Albuquerque Center
03:57PM 35.0275 -103.5139 100° East 427 491 37,000  Level Albuquerque Center
03:58PM 35.0058 -103.3700 100° East 427 491 37,000  Level Albuquerque Center
03:59PM 34.9844 -103.2281 100° East 425 489 37,000  Level Albuquerque Center
04:00PM 34.9633 -103.0867 100° East 422 486 37,000  Level Albuquerque Center
04:01PM 34.9422 -102.9447 100° East 423 487 37,000  Level Albuquerque Center
04:02PM 34.9192 -102.8025 101° East 424 488 37,000  Level Albuquerque Center
04:03PM 34.8981 -102.6600 100° East 424 488 37,000  Level Albuquerque Center
04:04PM 34.8781 -102.5269 100° East 424 488 37,000  Level Albuquerque Center
04:05PM 34.8508 -102.3583 101° East 425 489 37,000  Level Albuquerque Center
04:06PM 34.8286 -102.2169 101° East 427 491 37,000  Level Albuquerque Center
04:07PM 34.8061 -102.0756 101° East 428 493 37,000  Level Albuquerque Center
04:08PM 34.7833 -101.9344 101° East 429 494 37,000  Level Albuquerque Center
04:09PM 34.7606 -101.7947 101° East 427 491 37,000  Level Albuquerque Center
04:10PM 34.7378 -101.6547 101° East 426 490 37,000  Level Albuquerque Center
04:11PM 34.7108 -101.4856 101° East 429 494 37,000  Level Albuquerque Center
04:12PM 34.6872 -101.3456 102° East 427 491 37,000  Level Albuquerque Center
04:13PM 34.6644 -101.2042 101° East 428 493 37,000  Level Albuquerque Center
04:14PM 34.6408 -101.0611 101° East 431 496 37,000  Level Albuquerque Center
04:15PM 34.6169 -100.9183 101° East 433 498 37,000  Level Albuquerque Center
04:16PM 34.5922 -100.7747 102° East 434 499 37,000  Level Albuquerque Center
04:17PM 34.5628 -100.6017 102° East 438 504 37,000  Level Albuquerque Center
04:18PM 34.5381 -100.4594 102° East 435 501 37,000  Level Albuquerque Center
04:19PM 34.5128 -100.3194 102° East 430 495 37,000  Level Albuquerque Center
04:20PM 34.4886 -100.1775 102° East 430 495 37,000  Level Albuquerque Center
04:21PM 34.4625 -100.0325 102° East 431 496 37,000  Level Albuquerque Center
04:22PM 34.4375 -99.8911 102° East 430 495 37,000  Level Albuquerque Center
04:23PM 34.4111 -99.7475 103° East 435 501 37,000  Level Albuquerque Center
04:24PM 34.3858 -99.6058 102° East 433 498 37,000  Level Albuquerque Center
04:25PM 34.3553 -99.4347 102° East 433 498 37,000  Level Albuquerque Center
04:26PM 34.3292 -99.2917 102° East 434 499 37,000  Level Albuquerque Center
04:28PM 34.3014 -99.1331 102° East 432 497 37,000  Level Fort Worth Center
04:29PM 34.2700 -98.9817 104° East 432 497 37,000  Level Fort Worth Center
04:30PM 34.2422 -98.8406 103° East 432 497 37,000  Level Fort Worth Center
04:31PM 34.2147 -98.6944 103° East 432 497 37,000  Level Fort Worth Center
04:32PM 34.1889 -98.5533 102° East 432 497 37,000  Level Fort Worth Center
04:33PM 34.1589 -98.4075 104° East 432 497 37,000  Level Fort Worth Center
04:34PM 34.1308 -98.2642 103° East 432 497 37,000  Level Fort Worth Center
04:35PM 34.1025 -98.1208 103° East 432 497 37,000  Level Fort Worth Center
04:36PM 34.0822 -97.9853 100° East 432 497 37,000  Level Fort Worth Center
04:37PM 34.0536 -97.8372 103° East 437 503 37,000  Level Fort Worth Center
04:38PM 34.0247 -97.6942 104° East 437 503 37,000  Level Fort Worth Center
04:39PM 33.9958 -97.5514 104° East 437 503 37,000  Level Fort Worth Center
04:40PM 33.9689 -97.4086 103° East 437 503 37,000  Level Fort Worth Center
04:41PM 33.9375 -97.2633 105° East 437 503 37,000  Level Fort Worth Center
04:42PM 33.9100 -97.1156 103° East 437 503 37,000  Level Fort Worth Center
04:43PM 33.8783 -96.9731 105° East 437 503 37,000  Level Fort Worth Center
04:44PM 33.8486 -96.8258 104° East 437 503 37,000  Level Fort Worth Center
04:45PM 33.8186 -96.6783 104° East 437 503 37,000  Level Fort Worth Center
04:46PM 33.7883 -96.5311 104° East 443 510 37,000  Level Fort Worth Center
04:47PM 33.7581 -96.3842 104° East 449 517 37,000  Level Fort Worth Center
04:48PM 33.7275 -96.2422 104° East 449 517 37,000  Level Fort Worth Center
04:49PM 33.6928 -96.0953 106° East 449 517 37,000  Level Fort Worth Center
04:50PM 33.6661 -95.9486 102° East 449 517 37,000  Level Fort Worth Center
04:51PM 33.6308 -95.8019 106° East 449 517 37,000  Level Fort Worth Center
04:52PM 33.5997 -95.6553 104° East 449 517 37,000  Level Fort Worth Center
04:53PM 33.5639 -95.4989 105° East 449 517 37,000  Level Fort Worth Center
04:54PM 33.5325 -95.3525 104° East 444 511 37,000  Level Fort Worth Center
04:55PM 33.4986 -95.2064 106° East 444 511 37,000  Level Fort Worth Center
04:56PM 33.4689 -95.0603 104° East 449 517 37,000  Level Fort Worth Center
04:57PM 33.4369 -94.9119 104° East 449 517 37,000  Level Fort Worth Center
04:58PM 33.4025 -94.7661 106° East 449 517 37,000  Level Fort Worth Center
04:59PM 33.3703 -94.6228 105° East 449 517 37,000  Level Fort Worth Center
05:00PM 33.3356 -94.4772 106° East 449 517 37,000  Level Fort Worth Center
05:01PM 33.3031 -94.3339 105° East 449 517 37,000  Level Fort Worth Center
05:02PM 33.2700 -94.1886 105° East 449 517 37,000  Level Fort Worth Center
05:03PM 33.2356 -94.0606 108° East 449 517 37,000  Level Fort Worth Center
05:04PM 33.2000 -93.9131 106° East 455 524 37,000  Level Fort Worth Center
05:05PM 33.1708 -93.7678 103° East 455 524 37,000  Level Fort Worth Center
05:06PM 33.1394 -93.6253 105° East 448 516 37,000  Level Fort Worth Center
05:07PM 33.1058 -93.4828 106° East 443 510 37,000  Level Fort Worth Center
05:08PM 33.0744 -93.3431 105° East 443 510 37,000  Level Fort Worth Center
05:09PM 33.0406 -93.2008 106° East 438 504 37,000  Level Fort Worth Center
05:10PM 33.0064 -93.0589 106° East 438 504 37,000  Level Fort Worth Center
05:11PM 32.9681 -92.9194 108° East 438 504 37,000  Level Fort Worth Center
05:12PM 32.9378 -92.7775 104° East 438 504 37,000  Level Fort Worth Center
05:13PM 32.9056 -92.6356 105° East 438 504 37,000  Level Fort Worth Center
05:14PM 32.8689 -92.4967 107° East 438 504 37,000  Level Fort Worth Center
05:15PM 32.8081 -92.2431 106° East 437 503 37,000  Level Memphis Center
05:16PM 32.7725 -92.1042 107° East 437 503 37,000  Level Memphis Center
05:17PM 32.7308 -91.9525 108° East 442 509 37,000  Level Memphis Center
05:18PM 32.6969 -91.8139 106° East 442 509 37,000  Level Memphis Center
05:19PM 32.6608 -91.6700 107° East 442 509 37,000  Level Memphis Center
05:20PM 32.6267 -91.5339 107° East 442 509 37,000  Level Memphis Center
05:21PM 32.5864 -91.3928 109° East 442 509 37,000  Level Memphis Center
05:22PM 32.5539 -91.2544 106° East 442 509 37,000  Level Memphis Center
05:23PM 32.5172 -91.1111 107° East 442 509 37,000  Level Memphis Center
05:24PM 32.4825 -90.9731 107° East 442 509 37,000  Level Memphis Center
05:25PM 32.4456 -90.8375 108° East 442 509 37,000  Level Memphis Center
05:26PM 32.4083 -90.6969 107° East 442 509 37,000 240 Level Memphis Center
05:27PM 32.3775 -90.5714 106° East 442 509 37,500 840 Climbing Memphis Center
05:28PM 32.3400 -90.4358 108° East 442 509 38,700 720 Climbing Memphis Center
05:29PM 32.3025 -90.2958 108° East 442 509 39,000 120 Climbing Memphis Center
05:30PM 32.2647 -90.1558 108° East 442 509 39,000  Level Memphis Center
05:31PM 32.2289 -90.0183 107° East 442 509 39,000  Level Memphis Center
05:32PM 32.1908 -89.8811 108° East 442 509 39,000  Level Memphis Center
05:33PM 32.1547 -89.7439 107° East 442 509 39,000  Level Memphis Center
05:34PM 32.1164 -89.6044 108° East 442 509 39,000  Level Memphis Center
05:35PM 32.0800 -89.4697 108° East 442 509 39,000  Level Memphis Center
05:36PM 32.0433 -89.3306 107° East 442 509 39,000  Level Memphis Center
05:37PM 32.0003 -89.1814 109° East 442 509 39,000  Level Memphis Center
05:38PM 31.9614 -89.0475 109° East 442 509 39,000  Level Memphis Center
05:39PM 31.9267 -88.9281 109° East 437 503 39,000  Level Memphis Center
05:41PM 31.8597 -88.6844 108° East 436 502 39,000  Level Atlanta Center
05:42PM 31.8231 -88.5483 108° East 431 496 39,000  Level Atlanta Center
05:43PM 31.7839 -88.4119 109° East 431 496 39,000  Level Atlanta Center
05:44PM 31.7469 -88.2758 108° East 431 496 39,000  Level Atlanta Center
05:45PM 31.7097 -88.1422 108° East 431 496 39,000  Level Atlanta Center
05:46PM 31.6725 -88.0089 108° East 431 496 39,000 -420 Level Atlanta Center
05:50PM 31.5269 -87.5183 109° East 432 497 37,000 -420 Descending Jacksonville Center
05:51PM 31.4878 -87.3822 109° East 432 497 37,000  Level Jacksonville Center
05:52PM 31.4486 -87.2489 109° East 432 497 37,000  Level Jacksonville Center
05:53PM 31.4092 -87.1181 109° East 432 497 37,000  Level Jacksonville Center
05:54PM 31.3656 -86.9872 111° Southeast 432 497 37,000  Level Jacksonville Center
05:55PM 31.3258 -86.8542 109° East 432 497 37,000  Level Jacksonville Center
05:56PM 31.2903 -86.7214 107° East 432 497 37,000  Level Jacksonville Center
05:57PM 31.2589 -86.5842 105° East 432 497 37,000  Level Jacksonville Center
05:58PM 31.2294 -86.4492 104° East 426 490 37,000  Level Jacksonville Center
05:59PM 31.1978 -86.3122 105° East 426 490 37,000  Level Jacksonville Center
06:00PM 31.1678 -86.1750 104° East 426 490 37,000 -600 Level Jacksonville Center
06:01PM 31.1356 -86.0453 106° East 426 490 35,800 -1,800 Descending Jacksonville Center
06:02PM 31.1075 -85.9133 104° East 421 484 33,500 -2,100 Descending Jacksonville Center
06:03PM 31.0772 -85.7839 105° East 416 479 31,600 -2,040 Descending Jacksonville Center
06:04PM 31.0467 -85.6472 105° East 411 473 29,500 -2,040 Descending Jacksonville Center
06:05PM 31.0181 -85.5228 105° East 404 465 27,600 -1,260 Descending Jacksonville Center
06:06PM 30.9914 -85.4056 105° East 385 443 27,000 -300 Descending Jacksonville Center
06:07PM 30.9706 -85.2864 101° East 380 437 27,000 -240 Level Jacksonville Center
06:08PM 30.9561 -85.1625 98° East 375 432 26,600 -780 Descending Jacksonville Center
06:09PM 30.9417 -85.0433 98° East 375 432 25,500 -1,020 Descending Jacksonville Center
06:10PM 30.9225 -84.9267 101° East 369 425 24,600 -780 Descending Jacksonville Center
06:11PM 30.8950 -84.8125 106° East 369 425 24,000 -300 Descending Jacksonville Center
06:12PM 30.8633 -84.7053 109° East 379 436 24,000  Level Jacksonville Center
06:13PM 30.8314 -84.5908 108° East 379 436 24,000  Level Jacksonville Center
06:14PM 30.8017 -84.4792 107° East 374 430 24,000  Level Jacksonville Center
06:15PM 30.7697 -84.3603 107° East 374 430 24,000  Level Jacksonville Center
06:16PM 30.7375 -84.2461 108° East 369 425 24,000  Level Jacksonville Center
06:17PM 30.7053 -84.1297 108° East 369 425 24,000  Level Jacksonville Center
06:18PM 30.6728 -84.0133 108° East 369 425 24,000  Level Jacksonville Center
06:19PM 30.6406 -83.9019 109° East 369 425 24,000  Level Jacksonville Center
06:20PM 30.6100 -83.7856 107° East 369 425 24,000  Level Jacksonville Center
06:21PM 30.5772 -83.6694 108° East 374 430 24,000  Level Jacksonville Center
06:22PM 30.5467 -83.5558 107° East 369 425 24,000 -300 Level Jacksonville Center
06:23PM 30.5347 -83.4353 97° East 364 419 23,400 -840 Descending Jacksonville Center
06:24PM 30.5311 -83.3169 92° East 364 419 22,400 -1,020 Descending Jacksonville Center
06:25PM 30.5272 -83.2014 92° East 364 419 21,400 -1,020 Descending Jacksonville Center
06:26PM 30.5231 -83.0928 93° East 352 405 20,400 -1,020 Descending Jacksonville Center
06:27PM 30.5192 -82.9794 92° East 347 399 19,400 -1,020 Descending Jacksonville Center
06:28PM 30.5150 -82.8708 93° East 347 399 18,400 -900 Descending Jacksonville Center
06:29PM 30.5128 -82.7647 91° East 347 399 17,600 -1,200 Descending Jacksonville Center
06:30PM 30.5064 -82.6514 94° East 340 391 16,000 -1,740 Descending Jacksonville Center
06:31PM 30.5042 -82.5744 92° East 315 362 14,500 -1,800 Descending Jacksonville Center
06:32PM 30.5269 -82.4875 73° East 307 353 13,000 -1,620 Descending Jacksonville Center
06:33PM 30.5433 -82.3933 79° East 295 339 11,400 -1,380 Descending Jacksonville Center
06:34PM 30.5511 -82.3039 84° East 279 321 10,300 -1,500 Descending Jacksonville Center
06:34PM 30.5486 -82.2219 92° East 277 319 8,600 -1,920 Descending Jacksonville Center
06:35PM 30.5503 -82.1328 89° East 274 315 6,700 -1,920 Descending Jacksonville Center
06:36PM 30.5475 -82.0411 92° East 263 303 4,800 -1,860 Descending Jacksonville Center
06:38PM 30.5450 -81.9592 92° East 256 295 3,000 -1,560 Descending Jacksonville Center
06:39PM 30.5444 -81.8747 90° East 254 292 1,700 -600 Descending Jacksonville Center
06:40PM 30.5439 -81.8072 91° East 188 216 1,800 -240 Climbing Jacksonville Center
06:41PM 30.5331 -81.7639 106° East 138 159 1,300 -600 Descending Jacksonville Center
06:41PM 30.5097 -81.7303 129° Southeast 127 146 700 -660 Descending Jacksonville Center
06:43PM 30.4941 -81.6879 115° Southeast  Level Estimated
06:50PM 30.4941 -81.6879 311° West  Level Estimated
06:51PM 30.4941 -81.6879 311° West  Level Estimated